x

Pensacola - 115nm Ese Of Pensacola, Fl (42039) Wave Buoy

6:50pm - Sun 25th Jun 2017 All times are CDT. -5 hours from GMT.

  • Sig Wave height 1.6ft
  • Swell Direction
  • Peak Period 6s
  • Average Period 5s
  • Wind
    2mph, 4mph gusts
  • Sea Temp 85°f
  • Air Temp 83°f
  • Sea Pressure 1018.3mb
  • Pensacola - 115nm Ese Of Pensacola, Fl
  • Pensacola - 115nm Ese Of Pensacola, Fl

More Historic Weather Station data

Upgrade to MSW Pro to gain access to the past 30 days of data for over 8000 Wavebouys and Weather Stations around the globe.

Join Pro

Comparision Forecast

View Surf forecast
   
Sun 06/25 6:50pm 1.6ft 6s 5s 2 4 mph 1018.3mb 85f 83f
5:50pm 1.6ft 6s 5s 2 2 mph 1018.1mb 85f 84f
4:50pm 1.6ft 8s 5s 2 2 mph 1017.9mb 86f 84f
3:50pm 2ft 6s 5s 2 4 mph 1018.1mb 86f 84f
2:50pm 1.6ft 7s 5s 2 4 mph 1018.8mb 86f 83f
1:50pm 1.6ft 6s 5s 2 4 mph 1019.3mb 86f 83f
12:50pm 1.6ft 6s 5s 2 4 mph 1019.8mb 86f 83f
11:50am 1.6ft 6s 5s 2 4 mph 1020.1mb 86f 82f
10:50am 1.6ft 7s 5s 2 2 mph 1020.1mb 84f 82f
9:50am 1.6ft 6s 5s 4 7 mph 1019.6mb 82f 82f
8:50am 2ft 7s 6s 2 2 mph 1019.2mb 82f 82f
7:50am 2ft 6s 6s 2 4 mph 1019mb 82f 82f
6:50am 2ft 6s 5s 2 2 mph 1018.8mb 82f 82f
5:50am 2ft 7s 5s 2 4 mph 1018.6mb 82f 81f
4:50am 2ft 7s 5s 4 7 mph 1018.1mb 82f 81f
3:50am 2ft 7s 5s 4 7 mph 1017.8mb 82f 81f
2:50am 2ft 6s 5s 4 7 mph 1017.9mb 82f 81f
1:50am 2ft 8s 5s 4 7 mph 1018.3mb 83f 82f
12:50am 2.5ft 8s 5s 4 7 mph 1018.6mb 83f 81f
Sat 06/24 11:50pm 2ft 7s 5s 4 7 mph 1018.9mb 83f 82f
10:50pm 2ft 6s 5s 7 9 mph 1018.7mb 83f 82f
9:50pm 2.5ft 6s 5s 2 4 mph 1018.6mb 83f 82f
8:50pm 2ft 5s 5s 2 4 mph 1018.1mb 83f 82f
7:50pm 2.5ft 6s 5s  -  2 mph 1017.8mb 83f 82f
6:50pm 2ft 6s 5s  -  2 mph 1017.4mb 84f 85f
5:50pm 2ft 7s 5s 2 2 mph 1017.1mb 84f 84f
4:50pm 2.5ft 6s 5s 2 4 mph 1017.2mb 84f 84f
3:50pm 2.5ft 6s 5s 7 9 mph 1017.1mb 84f 82f
2:50pm 2.5ft 6s 5s 4 7 mph 1017.5mb 84f 82f
1:50pm 2.5ft 6s 5s 7 7 mph 1017.7mb 84f 82f
12:50pm 2.5ft 7s 6s 4 7 mph 1017.9mb 83f 82f
11:50am 2.5ft 6s 5s 2 4 mph 1018.2mb 84f 81f
10:50am 2.5ft 6s 6s 2 4 mph 1018.1mb 83f 81f
9:50am 2.5ft 7s 6s 2 4 mph 1017.9mb 82f 81f
8:50am 2.5ft 7s 6s 2 4 mph 1017.9mb 81f 81f
7:50am 2.5ft 7s 5s 4 7 mph 1017.7mb 81f 81f
6:50am 3ft 6s 5s 7 7 mph 1016.8mb 81f 81f
5:50am 3ft 7s 5s 7 9 mph 1016.3mb 81f 80f
4:50am 3ft 7s 5s 7 7 mph 1015.7mb 81f 80f
3:50am 3ft 6s 5s 7 9 mph 1015.4mb 81f 80f
2:50am 3.5ft 7s 5s 9 9 mph 1015.5mb 81f 80f
1:50am 3.5ft 7s 5s 9 11 mph 1015.7mb 81f 80f
12:50am 3.5ft 6s 5s 11 13 mph 1015.7mb 81f 81f
Fri 06/23 11:50pm 3.5ft 6s 5s 7 9 mph 1016.7mb 81f 81f
10:50pm 3.5ft 6s 5s 7 7 mph 1017.2mb 81f 81f
9:50pm 3.5ft 6s 5s 7 9 mph 1017mb 81f 81f
8:50pm 4ft 6s 5s 9 11 mph 1015.9mb 82f 81f
7:50pm 3.5ft 6s 5s 11 13 mph 1015.1mb 82f 81f
6:50pm 3.5ft 6s 5s 11 13 mph 1014.5mb 82f 82f
5:50pm 4ft 6s 5s 11 13 mph 1014.5mb 82f 82f
4:50pm 3.5ft 7s 5s 9 11 mph 1014.9mb 82f 82f
3:50pm 3.5ft 6s 5s 11 13 mph 1015.5mb 82f 82f
2:50pm 3.5ft 7s 5s 11 13 mph 1015.7mb 82f 82f
1:50pm 3.5ft 7s 5s 11 11 mph 1016.2mb 82f 82f
12:50pm 3.5ft 7s 5s 11 13 mph 1016.3mb 81f 82f
11:50am 3.5ft 7s 5s 13 16 mph 1016.2mb 81f 81f
10:50am 3.5ft 7s 5s 13 16 mph 1016.1mb 81f 81f
9:50am 3.5ft 7s 5s 16 18 mph 1016.2mb 81f 81f
8:50am 3.5ft 7s 5s 13 13 mph 1016.3mb 81f 81f
7:50am 3.5ft 7s 5s 13 16 mph 1015.9mb 81f 81f
6:50am 4ft 7s 5s 16 16 mph 1015.5mb 81f 81f
5:50am 4.5ft 7s 5s 13 16 mph 1015mb 81f 81f
4:50am 4ft 7s 5s 11 13 mph 1014.8mb 81f 81f
3:50am 4.5ft 7s 5s 13 16 mph 1014.3mb 81f 81f
2:50am 5ft 8s 5s 13 16 mph 1014.4mb 81f 81f
1:50am 5ft 8s 5s 13 18 mph 1014.9mb 81f 81f
12:50am 5ft 7s 5s 16 18 mph 1015.4mb 81f 81f
Thu 06/22 11:50pm 5ft 7s 5s 16 20 mph 1015.8mb 81f 81f
10:50pm 6ft 7s 5s 16 20 mph 1016mb 81f 81f
9:50pm 6ft 7s 6s 16 20 mph 1015.7mb 81f 81f
8:50pm 6ft 7s 6s 18 22 mph 1015mb 81f 81f
7:50pm 6ft 8s 6s 16 20 mph 1014.8mb 81f 81f
6:50pm 6.5ft 7s 6s 16 18 mph 1014.6mb 81f 81f
5:50pm 6.5ft 8s 6s 16 18 mph 1014.7mb 81f 82f
4:50pm 7ft 8s 6s 16 18 mph 1014.9mb 81f 82f
3:50pm 6.5ft 8s 6s 18 20 mph 1015.2mb 81f 82f
2:50pm 6.5ft 9s 6s 16 20 mph 1015.5mb 81f 82f
1:50pm 6ft 8s 6s 16 20 mph 1015.6mb 81f 82f
12:50pm 6.5ft 8s 6s 18 22 mph 1015.8mb 81f 82f
11:50am 7ft 8s 6s 18 22 mph 1015.8mb 81f 82f
10:50am 7ft 9s 6s 18 22 mph 1015.7mb 81f 82f
9:50am 7ft 9s 6s 20 25 mph 1015.5mb 81f 82f
8:50am 8ft 10s 7s 20 22 mph 1015.4mb 81f 82f
7:50am 7.5ft 9s 6s 20 25 mph 1014.7mb 81f 81f
6:50am 7.5ft 9s 6s 22 27 mph 1013.9mb 81f 81f
5:50am 8ft 9s 6s 20 25 mph 1013.1mb 80f 81f
4:50am 9ft 10s 7s 20 25 mph 1013mb 80f 81f
3:50am 9ft 10s 6s 20 25 mph 1013.3mb 80f 81f
2:50am 9ft 10s 6s 22 27 mph 1013.2mb 80f 81f
1:50am 9ft 10s 6s 22 29 mph 1013.3mb 80f 81f
12:50am 9ft 10s 6s 22 27 mph 1013.9mb 80f 82f